createdAt,value
2023-07-25T00:02:26.779Z,40.75
2023-07-25T00:05:29.880Z,40.74
2023-07-25T00:08:33.650Z,40.11
2023-07-25T00:11:38.260Z,40.41
2023-07-25T00:14:41.354Z,40.63
2023-07-25T00:17:44.497Z,40.70
2023-07-25T00:20:47.589Z,40.84
2023-07-25T00:23:50.630Z,41.23
2023-07-25T00:26:55.054Z,41.43
2023-07-25T00:29:58.180Z,40.86
2023-07-25T00:33:01.279Z,41.29
2023-07-25T00:36:04.541Z,41.29
2023-07-25T00:39:07.588Z,41.33
2023-07-25T00:42:12.075Z,41.73
2023-07-25T00:45:15.151Z,41.93
2023-07-25T00:48:18.504Z,41.46
2023-07-25T00:51:22.150Z,41.31
2023-07-25T00:54:25.303Z,40.79
2023-07-25T00:57:31.907Z,40.89
2023-07-25T01:00:35.021Z,40.80
2023-07-25T01:03:40.185Z,40.93
2023-07-25T01:06:44.013Z,41.09
2023-07-25T01:09:48.138Z,41.48
2023-07-25T01:12:52.684Z,41.44
2023-07-25T01:15:56.516Z,41.31
2023-07-25T01:19:01.375Z,41.48
2023-07-25T01:22:04.657Z,41.21
2023-07-25T01:25:10.017Z,41.15
2023-07-25T01:28:13.011Z,41.11
2023-07-25T01:31:16.140Z,41.02
2023-07-25T01:34:19.245Z,41.45
2023-07-25T01:37:22.266Z,41.93
2023-07-25T01:40:26.771Z,41.66
2023-07-25T01:43:29.835Z,42.54
2023-07-25T01:46:32.951Z,42.23
2023-07-25T01:49:36.050Z,41.82
2023-07-25T01:52:39.048Z,41.49
2023-07-25T01:55:43.478Z,41.47
2023-07-25T01:58:46.553Z,41.78
2023-07-25T02:01:49.752Z,41.40
2023-07-25T02:04:52.893Z,41.66
2023-07-25T02:07:56.071Z,41.76
2023-07-25T02:11:00.626Z,41.81
2023-07-25T02:14:03.766Z,42.06
2023-07-25T02:17:07.708Z,41.74
2023-07-25T02:20:11.431Z,42.41
2023-07-25T02:23:14.499Z,42.27
2023-07-25T02:26:18.915Z,42.33
2023-07-25T02:29:22.074Z,43.06
2023-07-25T02:32:25.294Z,42.75
2023-07-25T02:35:28.449Z,42.45
2023-07-25T02:38:31.522Z,43.57
2023-07-25T02:41:35.931Z,43.52
2023-07-25T02:44:38.938Z,43.11
2023-07-25T02:47:41.997Z,43.65
2023-07-25T02:50:45.089Z,43.49
2023-07-25T02:53:48.196Z,42.55
2023-07-25T02:56:52.666Z,43.08
2023-07-25T02:59:55.790Z,42.44
2023-07-25T03:02:58.918Z,42.57
2023-07-25T03:06:02.091Z,42.59
2023-07-25T03:09:05.499Z,42.28
2023-07-25T03:12:10.628Z,42.05
2023-07-25T03:15:13.661Z,42.20
2023-07-25T03:18:16.717Z,41.98
2023-07-25T03:21:19.851Z,42.04
2023-07-25T03:24:22.966Z,42.55
2023-07-25T03:27:27.887Z,42.42
2023-07-25T03:30:30.974Z,42.78
2023-07-25T03:33:34.119Z,42.37
2023-07-25T03:36:38.534Z,42.50
2023-07-25T03:39:41.593Z,43.12
2023-07-25T03:42:46.142Z,43.67
2023-07-25T03:45:49.513Z,43.07
2023-07-25T03:48:52.594Z,43.44
2023-07-25T03:51:55.649Z,43.40
2023-07-25T03:54:58.743Z,43.91
2023-07-25T03:58:03.229Z,43.74
2023-07-25T04:01:06.330Z,44.29
2023-07-25T04:04:09.523Z,44.59
2023-07-25T04:07:12.634Z,44.10
2023-07-25T04:10:15.768Z,45.91
2023-07-25T04:13:20.257Z,46.19
2023-07-25T04:16:23.553Z,45.23
2023-07-25T04:19:26.608Z,45.77
2023-07-25T04:22:30.026Z,44.85
2023-07-25T04:25:33.105Z,44.92
2023-07-25T04:28:37.611Z,44.61
2023-07-25T04:31:40.722Z,44.91
2023-07-25T04:34:43.796Z,43.96
2023-07-25T04:37:46.797Z,44.48
2023-07-25T04:40:49.816Z,44.36
2023-07-25T04:43:54.389Z,45.36
2023-07-25T04:46:57.494Z,45.21
2023-07-25T04:50:00.620Z,44.80
2023-07-25T04:53:03.665Z,44.55
2023-07-25T04:56:07.108Z,45.45
2023-07-25T04:59:11.508Z,44.75
2023-07-25T05:02:14.614Z,45.71
2023-07-25T05:05:17.792Z,46.00
2023-07-25T05:08:20.752Z,46.26
2023-07-25T05:11:23.895Z,46.28
2023-07-25T05:14:28.338Z,45.76
2023-07-25T05:17:31.467Z,45.28
2023-07-25T05:20:34.529Z,45.58
2023-07-25T05:23:37.566Z,44.79
2023-07-25T05:26:40.651Z,45.86
2023-07-25T05:29:45.248Z,45.61
2023-07-25T05:32:50.412Z,45.14
2023-07-25T05:36:01.755Z,44.52
2023-07-25T05:39:05.087Z,44.78
2023-07-25T05:42:08.744Z,45.00
2023-07-25T05:45:13.372Z,45.00
2023-07-25T05:48:16.459Z,45.04
2023-07-25T05:51:19.515Z,44.78
2023-07-25T05:54:22.934Z,44.96
2023-07-25T05:57:26.074Z,45.40
2023-07-25T06:00:30.599Z,45.53
2023-07-25T06:03:33.838Z,44.13
2023-07-25T06:06:37.044Z,44.35
2023-07-25T06:09:40.122Z,44.09
2023-07-25T06:12:43.697Z,44.13
2023-07-25T06:15:48.372Z,43.89
2023-07-25T06:18:51.490Z,43.57
2023-07-25T06:21:54.549Z,43.91
2023-07-25T06:24:57.805Z,43.60
2023-07-25T06:28:01.020Z,43.72
2023-07-25T06:31:05.641Z,43.43
2023-07-25T06:34:08.861Z,43.47
2023-07-25T06:37:12.093Z,42.55
2023-07-25T06:40:15.146Z,43.25
2023-07-25T06:43:18.157Z,42.96
2023-07-25T06:46:26.131Z,42.59
2023-07-25T06:49:29.306Z,43.28
2023-07-25T06:52:32.416Z,42.36
2023-07-25T06:55:35.875Z,42.43
2023-07-25T06:58:39.027Z,42.30
2023-07-25T07:01:43.493Z,42.65
2023-07-25T07:04:47.069Z,42.46
2023-07-25T07:07:50.557Z,42.04
2023-07-25T07:10:54.887Z,42.17
2023-07-25T07:13:58.009Z,41.64
2023-07-25T07:17:02.516Z,41.19
2023-07-25T07:20:06.294Z,40.96
2023-07-25T07:23:09.374Z,41.24
2023-07-25T07:26:12.426Z,41.12
2023-07-25T07:29:15.600Z,40.69
2023-07-25T07:32:20.137Z,40.68
2023-07-25T07:35:23.233Z,40.25
2023-07-25T07:38:26.275Z,40.34
2023-07-25T07:41:29.733Z,40.70
2023-07-25T07:44:33.067Z,40.69
2023-07-25T07:47:37.586Z,40.21
2023-07-25T07:50:40.783Z,40.85
2023-07-25T07:53:43.803Z,41.04
2023-07-25T07:56:46.976Z,40.29
2023-07-25T07:59:50.053Z,40.25
2023-07-25T08:02:54.588Z,40.10
2023-07-25T08:05:58.651Z,39.99
2023-07-25T08:09:01.699Z,40.73
2023-07-25T08:12:05.419Z,40.19
2023-07-25T08:15:09.183Z,39.88
2023-07-25T08:18:13.761Z,40.11
2023-07-25T08:21:16.819Z,39.89
2023-07-25T08:24:19.828Z,40.00
2023-07-25T08:27:22.979Z,40.63
2023-07-25T08:30:26.067Z,40.55
2023-07-25T08:33:32.984Z,39.98
2023-07-25T08:36:36.227Z,40.36
2023-07-25T08:39:39.324Z,39.63
2023-07-25T08:42:44.420Z,39.91
2023-07-25T08:45:50.445Z,39.47
2023-07-25T08:49:01.732Z,39.21
2023-07-25T08:52:06.756Z,39.75
2023-07-25T08:55:10.561Z,40.03
2023-07-25T08:58:15.729Z,39.75
2023-07-25T09:01:19.540Z,39.99
2023-07-25T09:04:25.354Z,40.06
2023-07-25T09:07:28.665Z,40.39
2023-07-25T09:10:32.366Z,40.40
2023-07-25T09:13:36.036Z,40.16
2023-07-25T09:16:39.247Z,40.50
2023-07-25T09:19:43.830Z,40.92
2023-07-25T09:22:49.092Z,40.92
2023-07-25T09:26:04.839Z,39.85
2023-07-25T09:29:08.105Z,39.70
2023-07-25T09:32:20.388Z,39.73
2023-07-25T09:35:26.051Z,39.99
2023-07-25T09:38:29.170Z,40.52
2023-07-25T09:41:32.793Z,41.45
2023-07-25T09:44:36.156Z,41.14
2023-07-25T09:47:40.926Z,41.67
2023-07-25T09:50:46.473Z,41.59
2023-07-25T09:53:53.644Z,41.26
2023-07-25T09:56:56.768Z,40.56
2023-07-25T10:00:01.132Z,40.46
2023-07-25T10:03:04.512Z,40.56
2023-07-25T10:06:10.027Z,41.20
2023-07-25T10:09:15.185Z,41.18
2023-07-25T10:12:18.308Z,41.18
2023-07-25T10:15:21.829Z,40.87
2023-07-25T10:18:28.561Z,41.20
2023-07-25T10:21:48.659Z,41.76
2023-07-25T10:24:51.884Z,41.52
2023-07-25T10:27:57.177Z,41.82
2023-07-25T10:31:00.356Z,41.78
2023-07-25T10:34:05.461Z,41.77
2023-07-25T10:37:24.146Z,41.65
2023-07-25T10:40:27.283Z,42.02
2023-07-25T10:43:32.327Z,42.08
2023-07-25T10:46:36.543Z,41.50
2023-07-25T10:49:58.269Z,41.82
2023-07-25T10:53:16.110Z,41.58
2023-07-25T10:56:20.348Z,42.06
2023-07-25T10:59:23.572Z,42.12
2023-07-25T11:02:33.700Z,42.40
2023-07-25T11:05:36.887Z,42.22
2023-07-25T11:08:43.028Z,41.64
2023-07-25T11:11:47.482Z,41.79
2023-07-25T11:14:52.190Z,41.86
2023-07-25T11:17:55.495Z,41.69
2023-07-25T11:21:02.746Z,41.93
2023-07-25T11:24:08.494Z,41.92
2023-07-25T11:27:11.767Z,42.15
2023-07-25T11:30:17.215Z,42.14
2023-07-25T11:33:20.934Z,42.36
2023-07-25T11:36:24.089Z,42.15
2023-07-25T11:39:28.776Z,42.42
2023-07-25T11:42:31.891Z,41.83
2023-07-25T11:45:35.277Z,41.39
2023-07-25T11:48:38.465Z,41.45
2023-07-25T11:51:42.675Z,41.14
2023-07-25T11:54:47.598Z,40.74
2023-07-25T11:57:52.437Z,41.31
2023-07-25T12:00:55.924Z,40.64
2023-07-25T12:04:01.706Z,39.69
2023-07-25T12:07:05.248Z,39.56
2023-07-25T12:10:10.144Z,39.25
2023-07-25T12:13:13.590Z,39.00
2023-07-25T12:16:30.771Z,39.03
2023-07-25T12:19:34.316Z,38.78
2023-07-25T12:22:38.922Z,38.96
2023-07-25T12:25:43.888Z,38.55
2023-07-25T12:28:47.398Z,38.74
2023-07-25T12:31:50.770Z,38.70
2023-07-25T12:35:01.081Z,38.78
2023-07-25T12:38:04.237Z,39.37
2023-07-25T12:41:09.703Z,38.76
2023-07-25T12:44:12.994Z,38.50
2023-07-25T12:47:16.038Z,36.47
2023-07-25T12:50:19.898Z,37.59
2023-07-25T12:53:22.930Z,36.83
2023-07-25T12:56:27.414Z,35.73
2023-07-25T12:59:30.542Z,36.21
2023-07-25T13:02:33.770Z,35.84
2023-07-25T13:05:37.126Z,35.29
2023-07-25T13:08:40.355Z,33.75
2023-07-25T13:11:45.768Z,34.72
2023-07-25T13:14:48.831Z,33.26
2023-07-25T13:17:51.988Z,32.53
2023-07-25T13:20:56.138Z,32.71
2023-07-25T13:23:59.334Z,32.65
2023-07-25T13:27:03.889Z,32.01
2023-07-25T13:30:08.197Z,30.75
2023-07-25T13:33:11.589Z,31.75
2023-07-25T13:36:14.912Z,31.97
2023-07-25T13:39:18.810Z,32.08
2023-07-25T13:42:24.649Z,30.74
2023-07-25T13:45:38.014Z,30.41
2023-07-25T13:48:49.202Z,30.25
2023-07-25T13:51:52.324Z,29.55
2023-07-25T13:54:55.442Z,29.07
2023-07-25T13:58:09.941Z,28.32
2023-07-25T14:01:13.551Z,30.51
2023-07-25T14:04:16.742Z,32.60
2023-07-25T14:07:20.499Z,33.74
2023-07-25T14:10:23.638Z,33.90
2023-07-25T14:13:28.338Z,34.96
2023-07-25T14:16:31.413Z,34.74
2023-07-25T14:19:34.846Z,35.13
2023-07-25T14:22:37.938Z,34.84
2023-07-25T14:25:41.679Z,35.08
2023-07-25T14:28:46.722Z,34.27
2023-07-25T14:31:49.866Z,34.08
2023-07-25T14:34:53.215Z,34.25
2023-07-25T14:37:58.162Z,34.05
2023-07-25T14:41:02.257Z,34.08
2023-07-25T14:44:06.946Z,34.46
2023-07-25T14:47:10.060Z,36.89
2023-07-25T14:50:13.254Z,37.69
2023-07-25T14:53:16.373Z,37.58
2023-07-25T14:56:19.527Z,37.30
2023-07-25T14:59:24.530Z,37.08
2023-07-25T15:02:27.743Z,37.13
2023-07-25T15:05:31.075Z,37.20
2023-07-25T15:08:34.186Z,37.43
2023-07-25T15:11:39.632Z,37.52
2023-07-25T15:14:44.247Z,37.11
2023-07-25T15:17:47.307Z,36.66
2023-07-25T15:20:53.534Z,36.65
2023-07-25T15:23:56.640Z,36.70
2023-07-25T15:26:59.746Z,37.23
2023-07-25T15:30:04.304Z,36.91
2023-07-25T15:33:07.619Z,36.22
2023-07-25T15:36:11.237Z,36.86
2023-07-25T15:39:14.446Z,36.65
2023-07-25T15:42:17.798Z,36.67
2023-07-25T15:45:22.303Z,37.13
2023-07-25T15:48:25.377Z,37.23
2023-07-25T15:51:28.711Z,37.79
2023-07-25T15:54:32.067Z,37.39
2023-07-25T15:57:35.152Z,36.41
2023-07-25T16:00:39.903Z,35.79
2023-07-25T16:03:48.025Z,35.66
2023-07-25T16:06:51.658Z,35.35
2023-07-25T16:09:54.711Z,35.10
2023-07-25T16:13:00.279Z,34.58
2023-07-25T16:16:07.832Z,34.58
2023-07-25T16:19:11.501Z,34.74
2023-07-25T16:22:14.745Z,34.83
2023-07-25T16:25:17.956Z,34.88
2023-07-25T16:28:20.993Z,34.66
2023-07-25T16:31:32.761Z,34.46
2023-07-25T16:34:36.716Z,34.99
2023-07-25T16:37:39.846Z,34.59
2023-07-25T16:40:43.076Z,35.50
2023-07-25T16:43:46.108Z,35.45
2023-07-25T16:46:50.669Z,35.43
2023-07-25T16:49:53.788Z,35.69
2023-07-25T16:52:56.913Z,35.74
2023-07-25T16:56:00.104Z,35.25
2023-07-25T16:59:03.317Z,35.52
2023-07-25T17:02:08.482Z,35.93
2023-07-25T17:05:14.669Z,35.65
2023-07-25T17:08:17.991Z,36.38
2023-07-25T17:11:21.077Z,35.87
2023-07-25T17:14:24.148Z,36.41
2023-07-25T17:17:29.093Z,36.39
2023-07-25T17:20:32.262Z,36.08
2023-07-25T17:23:35.437Z,36.33
2023-07-25T17:26:38.842Z,36.24
2023-07-25T17:29:41.924Z,36.71
2023-07-25T17:32:46.617Z,36.50
2023-07-25T17:35:49.717Z,37.06
2023-07-25T17:38:52.926Z,37.14
2023-07-25T17:41:56.026Z,37.44
2023-07-25T17:44:59.077Z,37.40
2023-07-25T17:48:03.553Z,37.64
2023-07-25T17:51:06.702Z,37.39
2023-07-25T17:54:09.840Z,37.83
2023-07-25T17:57:12.928Z,37.81
2023-07-25T18:00:16.297Z,37.67
2023-07-25T18:03:21.750Z,37.82
2023-07-25T18:06:24.906Z,38.22
2023-07-25T18:09:28.165Z,37.39
2023-07-25T18:12:31.312Z,38.14
2023-07-25T18:15:34.688Z,38.12
2023-07-25T18:18:39.159Z,37.88
2023-07-25T18:21:42.190Z,38.14
2023-07-25T18:24:45.343Z,38.43
2023-07-25T18:27:48.451Z,38.58
2023-07-25T18:30:55.831Z,37.92
2023-07-25T18:34:00.407Z,38.04
2023-07-25T18:37:03.715Z,38.15
2023-07-25T18:40:08.073Z,38.67
2023-07-25T18:43:18.350Z,38.33
2023-07-25T18:46:21.457Z,38.49
2023-07-25T18:49:26.014Z,38.89
2023-07-25T18:52:29.326Z,38.34
2023-07-25T18:55:32.396Z,39.01
2023-07-25T18:58:35.517Z,38.44
2023-07-25T19:01:38.609Z,38.62
2023-07-25T19:04:44.502Z,38.75
2023-07-25T19:07:47.672Z,38.62
2023-07-25T19:10:50.790Z,38.56
2023-07-25T19:13:53.899Z,39.02
2023-07-25T19:16:58.265Z,39.43
2023-07-25T19:20:05.062Z,38.93
2023-07-25T19:23:23.693Z,39.45
2023-07-25T19:26:28.813Z,38.99
2023-07-25T19:29:31.924Z,39.05
2023-07-25T19:32:34.986Z,39.69
2023-07-25T19:35:40.280Z,39.01
2023-07-25T19:38:43.703Z,39.13
2023-07-25T19:41:46.764Z,39.69
2023-07-25T19:44:49.920Z,39.75
2023-07-25T19:47:53.029Z,39.61
2023-07-25T19:50:57.544Z,39.20
2023-07-25T19:54:04.509Z,39.23
2023-07-25T19:57:08.057Z,39.58
2023-07-25T20:00:11.990Z,39.66
2023-07-25T20:03:15.195Z,39.76
2023-07-25T20:06:20.017Z,39.47
2023-07-25T20:09:23.243Z,39.89
2023-07-25T20:12:26.270Z,40.07
2023-07-25T20:15:29.497Z,39.63
2023-07-25T20:18:32.861Z,39.40
2023-07-25T20:21:37.322Z,39.85
2023-07-25T20:24:40.539Z,40.08
2023-07-25T20:27:43.617Z,40.16
2023-07-25T20:30:46.694Z,39.47
2023-07-25T20:33:49.795Z,39.73
2023-07-25T20:36:54.285Z,39.81
2023-07-25T20:39:57.335Z,39.36
2023-07-25T20:43:00.442Z,39.42
2023-07-25T20:46:04.705Z,38.32
2023-07-25T20:49:07.972Z,38.30
2023-07-25T20:52:12.467Z,38.28
2023-07-25T20:55:15.590Z,37.74
2023-07-25T20:58:18.663Z,37.79
2023-07-25T21:01:21.776Z,37.78
2023-07-25T21:04:28.913Z,37.03
2023-07-25T21:07:36.372Z,37.13
2023-07-25T21:10:41.681Z,37.16
2023-07-25T21:13:47.128Z,37.17
2023-07-25T21:16:50.209Z,37.10
2023-07-25T21:19:53.262Z,37.89
2023-07-25T21:22:57.702Z,38.24
2023-07-25T21:26:00.715Z,37.72
2023-07-25T21:29:03.884Z,37.71
2023-07-25T21:32:07.626Z,38.07
2023-07-25T21:35:10.693Z,37.98
2023-07-25T21:38:15.155Z,38.44
2023-07-25T21:41:18.236Z,37.98
2023-07-25T21:44:21.263Z,38.44
2023-07-25T21:47:24.458Z,38.22
2023-07-25T21:50:27.546Z,37.75
2023-07-25T21:53:32.786Z,38.26
2023-07-25T21:56:35.867Z,38.22
2023-07-25T21:59:38.984Z,38.72
2023-07-25T22:02:42.781Z,38.84
2023-07-25T22:05:45.909Z,39.14
2023-07-25T22:08:50.599Z,38.84
2023-07-25T22:11:55.758Z,38.64
2023-07-25T22:14:58.880Z,38.44
2023-07-25T22:18:01.963Z,39.31
2023-07-25T22:21:05.161Z,39.23
2023-07-25T22:24:09.684Z,38.81
2023-07-25T22:27:12.786Z,39.61
2023-07-25T22:30:16.288Z,39.26
2023-07-25T22:33:19.478Z,39.64
2023-07-25T22:36:22.543Z,40.06
2023-07-25T22:39:26.982Z,40.17
2023-07-25T22:42:30.010Z,39.59
2023-07-25T22:45:33.097Z,39.85
2023-07-25T22:48:36.219Z,39.78
2023-07-25T22:51:39.290Z,39.56
2023-07-25T22:54:43.838Z,40.07
2023-07-25T22:57:47.219Z,39.53
2023-07-25T23:00:50.481Z,39.57
2023-07-25T23:03:53.579Z,39.65
2023-07-25T23:06:56.669Z,40.20
2023-07-25T23:10:01.277Z,39.52
2023-07-25T23:13:04.439Z,39.62
2023-07-25T23:16:08.020Z,39.64
2023-07-25T23:19:11.138Z,39.85
2023-07-25T23:22:14.246Z,39.47
2023-07-25T23:25:18.871Z,39.64
2023-07-25T23:28:21.951Z,39.92
2023-07-25T23:31:25.054Z,39.40
2023-07-25T23:34:30.059Z,39.48
2023-07-25T23:37:33.133Z,39.55
2023-07-25T23:40:37.800Z,40.00
2023-07-25T23:43:40.886Z,39.66
2023-07-25T23:46:43.945Z,39.71
2023-07-25T23:49:47.123Z,40.51
2023-07-25T23:52:50.198Z,40.28
2023-07-25T23:55:54.670Z,40.58
2023-07-25T23:58:57.714Z,40.77
